Time;durP1;ratioP1;P1;durP2;ratioP2;P2;SDS_P1;SDS_P2;PMS_P1;PMS_P2;Temp;Humidity;BMP_temperature;BMP_pressure;BME280_temperature;BME280_humidity;BME280_pressure;Samples;Min_cycle;Max_cycle;Signal;HPM_P1;HPM_P2
2022/01/16 00:01:44;;;;;;;28.97;20.03;;;0.80;99.90;;;1.27;100.00;-19769.91;5110744;28;20227;-65
2022/01/16 00:04:13;;;;;;;31.17;21.20;;;0.70;99.90;;;1.45;100.00;-19776.25;5111027;28;20235;-65
2022/01/16 00:06:43;;;;;;;30.60;20.10;;;0.70;99.90;;;1.27;100.00;-19770.06;5110959;28;20301;-64
2022/01/16 00:09:13;;;;;;;29.50;20.50;;;0.70;99.90;;;1.23;100.00;-19768.88;5111335;28;20272;-65
2022/01/16 00:11:42;;;;;;;31.23;20.00;;;0.70;99.90;;;1.21;100.00;-19768.19;5111569;28;20279;-65
2022/01/16 00:14:12;;;;;;;30.90;20.97;;;0.70;99.90;;;1.27;100.00;-19769.91;5111031;28;20268;-65
2022/01/16 00:16:40;;;;;;;29.00;20.50;;;0.70;99.90;;;1.41;100.00;-19774.88;5111495;28;20663;-64
2022/01/16 00:19:09;;;;;;;29.80;19.87;;;0.70;99.90;;;1.19;100.00;-19767.50;5111651;28;20227;-65
2022/01/16 00:21:41;;;;;;;32.03;20.93;;;0.70;99.90;;;1.33;100.00;-19772.13;5111574;28;20298;-65
2022/01/16 00:24:12;;;;;;;29.53;19.80;;;0.70;99.90;;;1.43;100.00;-19775.38;5110857;28;20326;-65
2022/01/16 00:26:40;;;;;;;27.10;19.43;;;0.70;99.90;;;1.30;100.00;-19771.09;5110806;28;20729;-65
2022/01/16 00:29:11;;;;;;;25.87;18.07;;;0.60;99.90;;;1.27;100.00;-19769.91;5121546;28;20275;-65
2022/01/16 00:31:41;;;;;;;28.93;19.70;;;0.70;99.90;;;1.53;100.00;-19778.78;5132312;27;20301;-65
2022/01/16 00:34:13;;;;;;;26.47;19.33;;;0.70;99.90;;;1.52;100.00;-19778.63;5131773;27;20726;-65
2022/01/16 00:36:42;;;;;;;26.90;18.43;;;0.70;99.90;;;1.36;100.00;-19773.16;5131967;27;20222;-66
2022/01/16 00:39:10;;;;;;;28.00;17.73;;;0.70;99.90;;;1.27;100.00;-19769.91;5131982;27;20263;-64
2022/01/16 00:41:38;;;;;;;28.17;18.13;;;0.70;99.90;;;1.59;100.00;-19781.03;5132235;28;20199;-64
2022/01/16 00:44:07;;;;;;;29.27;19.07;;;0.70;99.90;;;1.70;100.00;-19784.78;5133413;27;20314;-65
2022/01/16 00:46:35;;;;;;;26.17;18.13;;;0.80;99.90;;;1.52;100.00;-19778.63;5135635;27;20228;-65
2022/01/16 00:49:04;;;;;;;29.67;18.43;;;0.80;99.90;;;1.52;100.00;-19778.63;5135623;27;20221;-66
2022/01/16 00:51:32;;;;;;;28.60;18.83;;;0.70;99.90;;;1.45;100.00;-19776.06;5124287;27;20223;-65
2022/01/16 00:54:02;;;;;;;29.13;18.23;;;0.70;99.90;;;1.62;100.00;-19782.06;5114996;28;20283;-65
2022/01/16 00:56:30;;;;;;;27.17;18.00;;;0.70;99.90;;;1.34;100.00;-19772.47;5115021;28;20286;-65
2022/01/16 00:58:58;;;;;;;29.77;19.37;;;0.70;99.90;;;1.59;100.00;-19780.84;5114675;27;20224;-64
2022/01/16 01:01:26;;;;;;;27.83;18.27;;;0.70;99.90;;;1.21;100.00;-19768.03;5115066;28;20306;-65
2022/01/16 01:03:54;;;;;;;30.07;19.27;;;0.60;99.90;;;1.08;100.00;-19763.59;5114764;28;20247;-65
2022/01/16 01:06:22;;;;;;;30.33;19.33;;;0.60;99.90;;;1.04;100.00;-19762.22;5114953;28;20300;-65
2022/01/16 01:08:50;;;;;;;27.23;18.77;;;0.60;99.90;;;1.27;100.00;-19770.25;5114668;28;20246;-65
2022/01/16 01:11:26;;;;;;;29.87;18.90;;;0.50;99.90;;;1.16;100.00;-19766.50;5114551;28;20732;-65
2022/01/16 01:14:14;;;;;;;29.87;19.10;;;0.50;99.90;;;1.14;100.00;-19765.63;5114392;28;20298;-65
2022/01/16 01:16:52;;;;;;;30.67;18.20;;;0.50;99.90;;;1.10;100.00;-19764.25;5114573;28;20233;-65
2022/01/16 01:19:27;;;;;;;25.70;18.07;;;0.50;99.90;;;1.01;100.00;-19761.38;5114556;28;20306;-65
2022/01/16 01:21:57;;;;;;;27.77;18.37;;;0.40;99.90;;;0.90;100.00;-19757.44;5114618;28;20247;-65
2022/01/16 01:24:25;;;;;;;28.60;18.47;;;0.40;99.90;;;0.92;100.00;-19758.13;5116963;27;20228;-64
2022/01/16 01:27:01;;;;;;;27.70;19.10;;;0.30;99.90;;;1.09;100.00;-19763.94;5134802;27;20294;-65
2022/01/16 01:29:30;;;;;;;27.30;18.27;;;0.30;99.90;;;1.38;100.00;-19773.84;5135368;27;20185;-64
2022/01/16 01:32:01;;;;;;;25.90;17.63;;;0.40;99.90;;;1.00;100.00;-19760.84;5134563;27;20223;-65
2022/01/16 01:34:30;;;;;;;29.67;18.10;;;0.40;99.90;;;1.08;100.00;-19763.75;5134666;27;20310;-64
2022/01/16 01:36:58;;;;;;;25.63;17.33;;;0.40;99.90;;;0.94;100.00;-19758.78;5134947;27;20223;-65
2022/01/16 01:39:26;;;;;;;26.73;17.40;;;0.30;99.90;;;1.05;100.00;-19762.72;5134784;27;20645;-64
2022/01/16 01:42:05;;;;;;;25.67;17.47;;;0.30;99.90;;;0.92;100.00;-19758.28;5134334;27;20222;-65
2022/01/16 01:52:56;;;;;;;24.73;16.67;;;0.20;99.90;;;1.16;100.00;-19766.50;5093356;28;20258;-64
2022/01/16 01:55:25;;;;;;;24.50;16.93;;;0.30;99.90;;;0.92;100.00;-19758.13;5099158;28;20453;-64
2022/01/16 01:57:55;;;;;;;24.70;17.13;;;0.30;99.90;;;1.00;100.00;-19760.84;5113687;28;20632;-65
2022/01/16 02:00:24;;;;;;;23.97;15.30;;;0.30;99.90;;;0.96;100.00;-19759.66;5113836;27;20281;-65
2022/01/16 02:03:10;;;;;;;23.17;16.77;;;0.30;99.90;;;0.87;100.00;-19756.56;5113774;28;20239;-65
2022/01/16 02:05:42;;;;;;;24.10;15.93;;;0.20;99.90;;;0.92;100.00;-19758.13;5113743;28;20240;-64
2022/01/16 02:08:11;;;;;;;25.27;16.87;;;0.20;99.90;;;0.96;100.00;-19759.47;5113213;28;20279;-65
2022/01/16 02:10:41;;;;;;;25.47;16.23;;;0.30;99.90;;;0.98;100.00;-19760.34;5112901;28;20251;-64
2022/01/16 02:13:20;;;;;;;21.97;15.47;;;0.20;99.90;;;0.97;100.00;-19759.81;5113220;28;20303;-64
2022/01/16 02:33:00;;;;;;;21.70;14.67;;;0.10;99.90;;;1.10;100.00;-19764.25;5107349;27;20223;-64
2022/01/16 02:35:28;;;;;;;20.93;14.40;;;0.20;99.90;;;0.82;100.00;-19754.69;5133634;27;20203;-65
2022/01/16 02:37:56;;;;;;;21.37;15.20;;;0.20;99.90;;;0.80;100.00;-19754.19;5133286;27;20917;-66
2022/01/16 02:40:27;;;;;;;20.07;14.93;;;0.20;99.90;;;0.73;100.00;-19751.63;5133302;27;20254;-65
2022/01/16 02:42:55;;;;;;;21.57;14.17;;;0.20;99.90;;;0.76;100.00;-19752.81;5132983;27;20261;-65
2022/01/16 02:45:32;;;;;;;18.60;14.27;;;0.20;99.90;;;0.74;100.00;-19752.13;5133085;27;20304;-64
2022/01/16 02:48:06;;;;;;;19.63;14.17;;;0.20;99.90;;;0.79;100.00;-19753.66;5133713;27;20270;-65
2022/01/16 02:50:36;;;;;;;18.10;13.90;;;0.20;99.90;;;0.82;100.00;-19754.88;5133832;27;20210;-66
2022/01/16 02:53:09;;;;;;;20.03;12.77;;;0.20;99.90;;;0.95;100.00;-19759.13;5133412;27;20362;-66
2022/01/16 02:55:43;;;;;;;20.33;14.50;;;0.30;99.90;;;1.11;100.00;-19764.78;5124608;27;20257;-65
2022/01/16 02:58:11;;;;;;;17.73;13.03;;;0.30;99.90;;;1.07;100.00;-19763.25;5112632;28;20305;-66
2022/01/16 03:00:39;;;;;;;20.73;13.80;;;0.40;99.90;;;0.93;100.00;-19758.47;5112335;28;20246;-66
2022/01/16 03:03:07;;;;;;;19.07;13.17;;;0.40;99.90;;;0.92;100.00;-19758.13;5112515;28;20358;-65
2022/01/16 03:05:35;;;;;;;20.17;14.07;;;0.30;99.90;;;1.07;100.00;-19763.41;5112327;28;20216;-66
2022/01/16 03:08:05;;;;;;;18.43;13.37;;;0.40;99.90;;;0.94;100.00;-19758.97;5112176;28;20306;-66
2022/01/16 03:13:26;;;;;;;18.90;13.77;;;0.40;99.90;;;0.95;100.00;-19759.13;5086132;28;20251;-63
2022/01/16 03:15:55;;;;;;;18.47;13.30;;;0.40;99.90;;;1.01;100.00;-19761.38;5112203;28;20305;-64
2022/01/16 03:23:55;;;;;;;18.07;13.10;;;0.40;99.90;;;0.90;100.00;-19757.59;5132654;27;20646;-63
2022/01/16 03:26:23;;;;;;;18.07;13.37;;;0.40;99.90;;;0.88;100.00;-19756.91;5132873;27;20222;-63
2022/01/16 03:28:52;;;;;;;16.70;12.50;;;0.40;99.90;;;0.82;100.00;-19754.69;5132528;27;20225;-63
2022/01/16 03:31:20;;;;;;;19.63;13.87;;;0.40;99.90;;;0.95;100.00;-19759.31;5132508;27;20315;-62
2022/01/16 03:33:48;;;;;;;16.77;13.30;;;0.40;99.90;;;1.01;100.00;-19761.19;5132543;27;20226;-63
2022/01/16 03:36:16;;;;;;;16.97;12.90;;;0.40;99.90;;;0.87;100.00;-19756.56;5125239;27;20732;-63
2022/01/16 03:38:44;;;;;;;17.50;12.97;;;0.40;99.90;;;0.84;100.00;-19755.38;5112749;28;20629;-62
2022/01/16 03:41:12;;;;;;;17.90;13.63;;;0.30;99.90;;;0.84;100.00;-19755.38;5111549;28;20227;-64
2022/01/16 03:43:40;;;;;;;18.00;12.57;;;0.30;99.90;;;0.90;100.00;-19757.59;5111629;28;20229;-63
2022/01/16 03:46:10;;;;;;;20.30;14.23;;;0.30;99.90;;;0.78;100.00;-19753.31;5111778;28;20284;-63
2022/01/16 03:48:38;;;;;;;18.73;14.37;;;0.30;99.90;;;0.78;100.00;-19753.31;5112302;28;20237;-64
2022/01/16 03:51:06;;;;;;;19.63;13.60;;;0.30;99.90;;;0.88;100.00;-19756.75;5105275;28;20664;-63
2022/01/16 03:53:34;;;;;;;19.63;13.97;;;0.30;99.90;;;0.92;100.00;-19758.28;5092574;28;20188;-62
2022/01/16 03:56:02;;;;;;;16.70;12.83;;;0.30;99.90;;;0.90;100.00;-19757.59;5103447;28;20322;-62
2022/01/16 03:58:30;;;;;;;16.90;13.10;;;0.30;99.90;;;0.95;100.00;-19759.13;5112003;28;20751;-63
2022/01/16 04:00:58;;;;;;;17.30;13.30;;;0.30;99.90;;;0.97;100.00;-19759.81;5112019;28;20250;-63
2022/01/16 04:03:28;;;;;;;18.70;13.50;;;0.30;99.90;;;0.85;100.00;-19755.88;5112432;28;20305;-64
2022/01/16 04:05:56;;;;;;;18.30;13.80;;;0.30;99.90;;;0.71;100.00;-19750.94;5111243;28;20680;-64
2022/01/16 04:08:24;;;;;;;18.60;13.50;;;0.30;99.90;;;0.85;100.00;-19755.72;5112308;28;20193;-63
2022/01/16 04:10:52;;;;;;;20.00;13.93;;;0.20;99.90;;;0.92;100.00;-19758.28;5111448;28;20225;-63
2022/01/16 04:13:21;;;;;;;19.90;14.20;;;0.30;99.90;;;0.96;100.00;-19759.47;5115287;28;20244;-64
2022/01/16 04:15:50;;;;;;;16.63;13.23;;;0.30;99.90;;;0.92;100.00;-19758.13;5131083;27;20317;-63
2022/01/16 04:18:18;;;;;;;19.73;14.20;;;0.30;99.90;;;0.86;100.00;-19756.22;5119186;28;20247;-62
2022/01/16 04:20:47;;;;;;;19.13;13.67;;;0.30;99.90;;;0.84;100.00;-19755.56;5116396;28;20310;-64
2022/01/16 04:23:16;;;;;;;21.60;15.00;;;0.30;99.90;;;0.92;100.00;-19758.13;5115955;28;20367;-63
2022/01/16 04:25:44;;;;;;;20.03;13.80;;;0.30;99.90;;;0.90;100.00;-19757.44;5115508;28;20697;-64
2022/01/16 04:28:12;;;;;;;17.13;13.37;;;0.30;99.90;;;0.75;100.00;-19752.28;5115403;28;20349;-63
2022/01/16 04:30:40;;;;;;;17.63;13.17;;;0.30;99.90;;;0.82;100.00;-19754.69;5115401;27;20778;-63
2022/01/16 04:33:08;;;;;;;19.33;13.53;;;0.20;99.90;;;0.82;100.00;-19754.88;5115291;28;20675;-63
2022/01/16 04:35:36;;;;;;;18.97;14.23;;;0.20;99.90;;;0.89;100.00;-19757.09;5115779;28;20317;-64
2022/01/16 04:38:05;;;;;;;18.40;13.80;;;0.20;99.90;;;0.70;100.00;-19750.59;5115656;27;20585;-64
2022/01/16 04:40:42;;;;;;;19.60;14.13;;;0.20;99.90;;;0.61;100.00;-19747.50;5115343;28;20309;-63
2022/01/16 04:45:59;;;;;;;20.63;14.07;;;0.10;99.90;;;0.72;100.00;-19751.44;5115373;28;20318;-63
2022/01/16 04:48:27;;;;;;;19.10;13.17;;;0.10;99.90;;;0.80;100.00;-19754.19;5115337;28;20589;-64
2022/01/16 04:50:55;;;;;;;18.77;14.17;;;0.20;99.90;;;0.68;100.00;-19750.06;5109659;28;20186;-65
2022/01/16 04:53:25;;;;;;;21.10;13.47;;;0.20;99.90;;;0.76;100.00;-19752.66;5095437;28;20624;-62
2022/01/16 04:55:53;;;;;;;19.97;14.10;;;0.20;99.90;;;0.76;100.00;-19752.66;5104878;28;20229;-62
2022/01/16 04:58:22;;;;;;;18.90;13.27;;;0.20;99.90;;;0.73;100.00;-19751.78;5114944;28;20235;-63
2022/01/16 05:00:55;;;;;;;20.40;14.00;;;0.20;99.90;;;0.76;100.00;-19752.81;5115065;27;20579;-64
2022/01/16 05:03:25;;;;;;;17.67;13.17;;;0.20;99.90;;;1.02;100.00;-19761.69;5115232;28;20221;-63
2022/01/16 05:05:54;;;;;;;20.10;13.60;;;0.30;99.90;;;1.11;100.00;-19764.59;5115091;28;20229;-62
2022/01/16 05:08:23;;;;;;;19.20;13.33;;;0.30;99.90;;;1.00;100.00;-19761.03;5115326;28;20634;-64
2022/01/16 05:10:55;;;;;;;21.63;13.90;;;0.30;99.90;;;0.94;100.00;-19758.97;5129531;27;20253;-62
2022/01/16 05:13:31;;;;;;;19.10;14.07;;;0.30;99.90;;;0.75;100.00;-19752.47;5135197;27;20260;-65
2022/01/16 05:18:45;;;;;;;20.63;13.73;;;0.20;99.90;;;0.68;100.00;-19749.91;5116387;27;20913;-62
2022/01/16 05:21:14;;;;;;;21.10;14.53;;;0.20;99.90;;;0.64;100.00;-19748.53;5114591;27;20728;-63
2022/01/16 05:23:42;;;;;;;22.50;14.67;;;0.20;99.90;;;0.97;100.00;-19760.00;5115096;28;20294;-62
2022/01/16 05:26:14;;;;;;;22.47;15.77;;;0.30;99.90;;;0.96;100.00;-19759.47;5114171;28;20222;-62
2022/01/16 05:28:44;;;;;;;21.40;14.80;;;0.30;99.90;;;0.79;100.00;-19753.66;5113528;28;20230;-62
2022/01/16 05:31:12;;;;;;;21.80;15.23;;;0.30;99.90;;;0.92;100.00;-19758.28;5114237;28;20253;-63
2022/01/16 05:33:41;;;;;;;23.60;16.27;;;0.30;99.90;;;1.10;100.00;-19764.25;5114414;28;20221;-63
2022/01/16 05:36:09;;;;;;;23.67;15.33;;;0.30;99.90;;;1.19;100.00;-19767.34;5114114;28;20295;-62
2022/01/16 05:38:37;;;;;;;23.10;15.33;;;0.40;99.90;;;1.27;100.00;-19769.91;5114869;28;20607;-62
2022/01/16 05:41:05;;;;;;;22.67;15.73;;;0.40;99.90;;;1.25;100.00;-19769.56;5113922;28;20768;-62
2022/01/16 05:43:34;;;;;;;24.57;16.03;;;0.40;99.90;;;1.30;100.00;-19771.09;5113814;28;20306;-62
2022/01/16 05:46:03;;;;;;;24.03;16.33;;;0.50;99.90;;;1.27;100.00;-19769.91;5113875;28;20310;-63
2022/01/16 05:48:31;;;;;;;25.87;15.70;;;0.50;99.90;;;1.28;100.00;-19770.41;5114167;28;20252;-63
2022/01/16 05:50:59;;;;;;;23.27;15.40;;;0.60;99.90;;;1.34;100.00;-19772.31;5107781;28;20287;-63
2022/01/16 05:53:27;;;;;;;24.33;16.37;;;0.60;99.90;;;1.45;100.00;-19776.25;5094246;28;20200;-63
2022/01/16 05:55:55;;;;;;;25.53;16.37;;;0.60;99.90;;;1.27;100.00;-19770.06;5093563;28;20327;-63
2022/01/16 05:58:23;;;;;;;25.00;16.73;;;0.60;99.90;;;1.44;100.00;-19775.88;5093315;28;20238;-62
2022/01/16 06:00:53;;;;;;;23.97;16.07;;;0.70;99.90;;;1.31;100.00;-19771.28;5093460;28;20242;-62
2022/01/16 06:03:21;;;;;;;22.63;15.27;;;0.60;99.90;;;1.33;100.00;-19772.13;5093479;28;20318;-63
2022/01/16 06:05:49;;;;;;;21.00;13.83;;;0.60;99.90;;;1.40;100.00;-19774.53;5102247;27;20210;-63
2022/01/16 06:08:17;;;;;;;23.30;14.37;;;0.70;99.90;;;1.38;100.00;-19773.66;5134241;27;20299;-63
2022/01/16 06:10:45;;;;;;;20.37;14.03;;;0.70;99.90;;;1.49;100.00;-19777.59;5133193;27;20250;-62
2022/01/16 06:13:14;;;;;;;21.70;14.03;;;0.70;99.90;;;1.40;100.00;-19774.53;5129736;27;20215;-62
2022/01/16 06:15:42;;;;;;;20.23;13.37;;;0.70;99.90;;;1.46;100.00;-19776.41;5112929;28;20651;-62
2022/01/16 06:18:11;;;;;;;21.27;13.63;;;0.70;99.90;;;1.66;100.00;-19783.41;5112530;28;20227;-62
2022/01/16 06:20:40;;;;;;;19.40;13.47;;;0.80;99.90;;;1.60;100.00;-19781.19;5113607;28;20623;-63
2022/01/16 06:23:09;;;;;;;21.57;14.40;;;0.80;99.90;;;1.55;100.00;-19779.66;5113402;28;20226;-62
2022/01/16 06:25:37;;;;;;;19.93;13.43;;;0.80;99.90;;;1.55;100.00;-19779.66;5113545;28;20247;-62
2022/01/16 06:28:05;;;;;;;22.60;13.93;;;0.80;99.90;;;1.63;100.00;-19782.38;5112990;28;20255;-62
2022/01/16 06:30:33;;;;;;;21.97;15.03;;;0.90;99.90;;;1.70;100.00;-19784.59;5113348;28;20307;-63
2022/01/16 06:33:03;;;;;;;24.90;14.97;;;0.90;99.90;;;1.59;100.00;-19780.84;5113219;28;20566;-64
2022/01/16 06:35:33;;;;;;;21.03;14.67;;;0.90;99.90;;;1.57;100.00;-19780.34;5113452;28;20246;-64
2022/01/16 06:38:01;;;;;;;21.93;15.03;;;0.90;99.90;;;1.67;100.00;-19783.59;5112835;28;20731;-63
2022/01/16 06:40:29;;;;;;;22.77;14.97;;;1.00;99.90;;;1.78;100.00;-19787.53;5112815;27;20229;-64
2022/01/16 06:42:57;;;;;;;23.03;15.07;;;1.00;99.90;;;1.69;100.00;-19784.44;5112673;28;20268;-64
2022/01/16 06:45:26;;;;;;;22.20;14.40;;;1.00;99.90;;;1.82;100.00;-19788.88;5112945;28;20703;-63
2022/01/16 06:47:54;;;;;;;22.40;15.03;;;1.00;99.90;;;1.97;100.00;-19793.84;5112916;28;20583;-62
2022/01/16 06:50:22;;;;;;;20.47;13.97;;;1.10;99.90;;;2.10;100.00;-19798.28;5112477;28;20300;-62
2022/01/16 06:52:51;;;;;;;22.97;14.23;;;1.20;99.90;;;1.99;100.00;-19794.69;5092832;28;20310;-62
2022/01/16 06:55:19;;;;;;;21.17;14.43;;;1.20;99.90;;;1.86;100.00;-19790.09;5098088;28;20314;-63
2022/01/16 06:57:47;;;;;;;23.40;15.13;;;1.20;99.90;;;1.91;100.00;-19791.97;5112451;28;20750;-64
2022/01/16 07:00:16;;;;;;;23.00;14.70;;;1.20;99.90;;;2.01;100.00;-19795.22;5112125;28;20310;-64
2022/01/16 07:02:44;;;;;;;20.03;14.07;;;1.20;99.90;;;2.00;100.00;-19794.88;5122902;27;20241;-63
2022/01/16 07:05:12;;;;;;;21.23;14.60;;;1.30;99.90;;;2.02;100.00;-19795.56;5133010;27;20238;-63
2022/01/16 07:07:40;;;;;;;23.90;14.87;;;1.20;99.90;;;1.92;100.00;-19792.13;5133044;27;20227;-63
2022/01/16 07:10:10;;;;;;;20.70;14.43;;;1.20;99.90;;;2.09;100.00;-19797.94;5123979;27;20219;-63
2022/01/16 07:12:38;;;;;;;21.00;14.60;;;1.30;99.90;;;2.10;100.00;-19798.47;5112185;28;20964;-63
2022/01/16 07:15:09;;;;;;;20.57;13.83;;;1.30;99.90;;;2.09;100.00;-19798.13;5112335;28;20199;-62
2022/01/16 07:17:37;;;;;;;19.20;13.93;;;1.30;99.90;;;2.00;100.00;-19795.03;5112933;28;20286;-63
2022/01/16 07:20:06;;;;;;;19.77;14.30;;;1.30;99.90;;;1.93;100.00;-19792.47;5112074;28;20223;-63
2022/01/16 07:22:34;;;;;;;21.10;15.47;;;1.30;99.90;;;1.98;100.00;-19794.19;5112273;28;20227;-64
2022/01/16 07:25:02;;;;;;;19.73;15.00;;;1.20;99.90;;;1.88;100.00;-19790.94;5112236;28;20219;-62
2022/01/16 07:27:32;;;;;;;19.53;13.73;;;1.20;99.90;;;1.75;100.00;-19786.31;5111964;28;20276;-64
2022/01/16 07:30:00;;;;;;;21.27;14.70;;;1.20;99.90;;;1.73;100.00;-19785.63;5112183;27;20199;-63
2022/01/16 07:32:28;;;;;;;20.50;14.83;;;1.10;99.90;;;1.78;100.00;-19787.53;5112529;28;20613;-62
2022/01/16 07:34:56;;;;;;;18.33;14.03;;;1.10;99.90;;;1.85;100.00;-19789.75;5112016;28;20241;-62
2022/01/16 07:37:24;;;;;;;19.63;13.20;;;1.20;99.90;;;1.85;100.00;-19789.91;5112248;28;20235;-63
2022/01/16 07:39:53;;;;;;;19.60;14.40;;;1.20;99.90;;;1.91;100.00;-19791.97;5111836;28;20268;-62
2022/01/16 07:42:21;;;;;;;15.83;13.00;;;1.20;99.90;;;1.93;100.00;-19792.66;5111769;28;20249;-63
2022/01/16 07:44:50;;;;;;;16.30;12.60;;;1.20;99.90;;;2.05;100.00;-19796.75;5112300;28;20311;-63
2022/01/16 07:47:19;;;;;;;16.07;12.33;;;1.30;99.90;;;2.23;100.00;-19802.91;5112564;28;20298;-63
2022/01/16 07:49:47;;;;;;;16.90;12.90;;;1.40;99.90;;;2.19;100.00;-19801.38;5111776;28;20224;-63
2022/01/16 07:52:35;;;;;;;15.50;11.47;;;1.40;99.90;;;2.38;100.00;-19808.03;5111268;28;20227;-63
2022/01/16 07:55:04;;;;;;;14.57;11.50;;;1.40;99.90;;;2.21;100.00;-19802.06;5111484;28;20243;-63
2022/01/16 07:57:32;;;;;;;15.33;11.90;;;1.50;99.90;;;2.35;100.00;-19806.84;5111526;28;20261;-63
2022/01/16 08:00:22;;;;;;;14.00;10.97;;;1.50;99.90;;;2.23;100.00;-19802.91;5091251;28;20687;-63
2022/01/16 08:02:51;;;;;;;17.30;12.57;;;1.50;99.90;;;2.36;100.00;-19807.19;5091243;28;20216;-64
2022/01/16 08:05:21;;;;;;;17.33;12.10;;;1.50;99.90;;;2.37;100.00;-19807.53;5091407;28;20223;-62
2022/01/16 08:07:49;;;;;;;15.47;11.33;;;1.50;99.90;;;2.53;100.00;-19813.00;5111047;28;20230;-62
2022/01/16 08:10:17;;;;;;;15.83;11.67;;;1.60;99.90;;;2.55;100.00;-19813.50;5111343;28;20318;-63
2022/01/16 08:12:45;;;;;;;15.53;12.53;;;1.70;99.90;;;2.54;100.00;-19813.16;5111453;28;20231;-63
2022/01/16 08:15:14;;;;;;;14.80;11.43;;;1.60;99.90;;;2.65;100.00;-19816.91;5111839;28;20321;-64
2022/01/16 08:17:43;;;;;;;16.23;12.30;;;1.70;99.90;;;2.73;100.00;-19819.81;5112224;28;20244;-64
2022/01/16 08:20:12;;;;;;;15.50;12.10;;;1.80;99.90;;;2.82;100.00;-19822.91;5111568;28;20650;-64
2022/01/16 08:22:40;;;;;;;15.90;12.53;;;1.90;99.90;;;2.76;100.00;-19820.69;5112083;28;20246;-64
2022/01/16 08:25:09;;;;;;;16.03;12.13;;;1.90;99.90;;;2.61;100.00;-19815.56;5111580;28;20322;-63
2022/01/16 08:27:38;;;;;;;14.67;12.03;;;1.90;99.90;;;2.82;100.00;-19822.72;5111389;28;20696;-64
2022/01/16 08:30:09;;;;;;;15.40;11.83;;;1.90;99.90;;;2.93;100.00;-19826.66;5111715;28;20234;-63
2022/01/16 08:32:38;;;;;;;14.83;11.67;;;2.00;99.90;;;3.05;100.00;-19830.59;5112164;28;20202;-63
2022/01/16 08:35:09;;;;;;;15.33;11.53;;;2.10;99.90;;;2.97;100.00;-19828.03;5111132;28;20253;-61
2022/01/16 08:37:37;;;;;;;16.33;12.07;;;2.20;99.90;;;2.92;100.00;-19826.16;5111690;28;20223;-62
2022/01/16 08:40:07;;;;;;;15.43;11.67;;;2.10;99.90;;;3.05;100.00;-19830.59;5111374;28;20261;-63
2022/01/16 08:42:37;;;;;;;17.80;12.43;;;2.10;99.90;;;2.99;100.00;-19828.72;5110245;28;20298;-62
2022/01/16 08:45:05;;;;;;;16.03;12.13;;;2.10;99.90;;;3.02;100.00;-19829.56;5110807;28;20231;-63
2022/01/16 08:47:34;;;;;;;16.17;12.47;;;2.20;99.90;;;3.08;100.00;-19831.78;5111396;28;20329;-62
2022/01/16 08:50:04;;;;;;;19.10;12.30;;;2.20;99.90;;;3.03;100.00;-19829.91;5111357;28;20250;-62
2022/01/16 08:52:33;;;;;;;15.60;11.57;;;2.20;99.90;;;3.06;100.00;-19831.09;5091254;28;20251;-63
2022/01/16 08:55:02;;;;;;;17.13;11.87;;;2.20;99.90;;;3.13;100.00;-19833.34;5105370;28;20243;-66
2022/01/16 08:57:30;;;;;;;16.93;12.30;;;2.30;99.90;;;3.23;100.00;-19836.91;5110931;28;20285;-63
2022/01/16 08:59:58;;;;;;;16.93;12.10;;;2.30;99.90;;;3.23;100.00;-19836.91;5111591;28;20288;-62
2022/01/16 09:02:26;;;;;;;16.77;12.50;;;2.40;99.90;;;3.18;100.00;-19835.03;5112127;28;20226;-64
2022/01/16 09:04:54;;;;;;;15.33;12.13;;;2.30;99.90;;;3.33;100.00;-19840.19;5113036;28;20283;-63
2022/01/16 09:07:22;;;;;;;17.17;12.33;;;2.50;99.90;;;3.43;100.00;-19843.59;5111935;27;20247;-62
2022/01/16 09:09:52;;;;;;;16.47;11.47;;;2.50;99.90;;;3.49;100.00;-19845.63;5115552;28;20302;-63
2022/01/16 09:12:20;;;;;;;13.47;10.83;;;2.50;99.90;;;3.37;100.00;-19841.72;5114633;28;20690;-64
2022/01/16 09:14:48;;;;;;;15.47;10.87;;;2.50;99.90;;;3.48;100.00;-19845.31;5116196;28;20238;-63
2022/01/16 09:17:16;;;;;;;16.13;12.03;;;2.60;99.90;;;3.37;100.00;-19841.53;5115192;28;20298;-62
2022/01/16 09:19:44;;;;;;;16.37;12.00;;;2.60;99.90;;;3.39;100.00;-19842.22;5115224;28;20305;-63
2022/01/16 09:22:13;;;;;;;15.13;11.00;;;2.60;99.90;;;3.62;100.00;-19850.25;5114658;28;20236;-62
2022/01/16 09:24:41;;;;;;;17.97;11.20;;;2.60;99.90;;;3.58;100.00;-19848.72;5115964;28;20310;-62
2022/01/16 09:27:10;;;;;;;14.43;10.93;;;2.70;99.90;;;3.53;100.00;-19847.00;5114931;28;20234;-63
2022/01/16 09:29:38;;;;;;;15.60;10.67;;;2.60;99.90;;;3.63;100.00;-19850.59;5115963;28;20315;-62
2022/01/16 09:32:07;;;;;;;12.97;9.87;;;2.70;99.90;;;3.86;100.00;-19858.28;5114823;28;20232;-62
2022/01/16 09:34:35;;;;;;;11.57;8.57;;;2.80;99.90;;;3.75;100.00;-19854.53;5115046;28;20230;-65
2022/01/16 09:37:08;;;;;;;14.37;9.63;;;2.80;99.90;;;3.86;100.00;-19858.13;5114483;28;20864;-64
2022/01/16 09:39:37;;;;;;;11.77;8.60;;;2.80;99.90;;;3.77;100.00;-19855.22;5115012;28;20722;-64
2022/01/16 09:42:07;;;;;;;14.20;8.97;;;2.90;99.90;;;3.79;100.00;-19855.91;5114338;28;20291;-63
2022/01/16 09:44:39;;;;;;;11.80;8.13;;;2.90;99.90;;;3.73;100.00;-19853.84;5115216;28;20208;-62
2022/01/16 09:47:09;;;;;;;11.83;9.30;;;2.90;99.90;;;3.96;100.00;-19861.72;5114513;28;20226;-62
2022/01/16 09:49:38;;;;;;;11.50;8.10;;;2.90;99.90;;;3.72;100.00;-19853.69;5114659;28;20311;-62
2022/01/16 09:52:07;;;;;;;12.90;8.50;;;2.90;99.90;;;3.92;100.00;-19860.16;5128243;27;20312;-62
2022/01/16 09:54:37;;;;;;;11.97;8.43;;;2.90;99.90;;;3.98;100.00;-19862.22;5135080;27;20221;-63
2022/01/16 09:57:06;;;;;;;13.47;8.43;;;3.00;99.90;;;3.88;100.00;-19858.97;5122503;27;20240;-63
2022/01/16 09:59:36;;;;;;;12.30;8.03;;;3.00;99.90;;;3.80;100.00;-19856.25;5108285;28;20195;-65
2022/01/16 10:02:05;;;;;;;11.57;8.90;;;2.90;99.90;;;3.68;100.00;-19852.13;5112556;27;20658;-62
2022/01/16 10:04:37;;;;;;;13.10;8.80;;;2.90;99.90;;;3.69;100.00;-19852.66;5113757;28;20275;-62
2022/01/16 10:07:09;;;;;;;12.63;8.63;;;2.90;99.90;;;3.81;100.00;-19856.41;5113644;27;20666;-63
2022/01/16 10:09:42;;;;;;;15.90;10.37;;;2.90;99.90;;;3.91;100.00;-19860.00;5113938;28;20230;-63
2022/01/16 10:12:16;;;;;;;13.37;8.93;;;2.90;99.90;;;3.87;100.00;-19858.47;5113548;28;20223;-62
2022/01/16 10:14:49;;;;;;;12.13;8.97;;;2.90;99.90;;;4.09;100.00;-19866.16;5113936;28;20239;-62
2022/01/16 10:17:21;;;;;;;13.93;9.97;;;3.00;99.90;;;4.12;100.00;-19867.19;5113568;28;20671;-63
2022/01/16 10:20:00;;;;;;;14.33;10.30;;;3.10;99.90;;;3.93;100.00;-19860.69;5113870;27;20310;-64
2022/01/16 10:22:39;;;;;;;16.20;10.83;;;3.10;99.90;;;4.07;100.00;-19865.31;5113028;28;20287;-60
2022/01/16 10:25:08;;;;;;;16.43;10.40;;;3.10;99.90;;;4.05;100.00;-19864.78;5113019;28;20813;-59
2022/01/16 10:27:40;;;;;;;15.50;11.40;;;3.10;99.90;;;3.89;100.00;-19859.31;5112726;27;20305;-60
2022/01/16 10:30:14;;;;;;;17.67;11.60;;;3.10;99.90;;;4.00;100.00;-19863.06;5112945;28;20208;-59
2022/01/16 10:32:45;;;;;;;17.40;12.10;;;3.00;99.90;;;4.05;100.00;-19864.78;5112888;28;20632;-61
2022/01/16 10:35:17;;;;;;;18.00;12.20;;;3.10;99.90;;;4.11;100.00;-19866.84;5113026;28;20265;-60
2022/01/16 10:37:47;;;;;;;20.80;12.37;;;3.10;99.90;;;4.17;100.00;-19868.88;5112634;28;20686;-61
2022/01/16 10:40:18;;;;;;;17.97;12.17;;;3.20;99.90;;;4.12;100.00;-19867.19;5112968;28;20256;-59
2022/01/16 10:42:52;;;;;;;20.60;12.80;;;3.20;99.90;;;4.28;100.00;-19872.66;5112256;28;20317;-59
2022/01/16 10:45:27;;;;;;;18.70;12.43;;;3.20;99.90;;;4.25;100.00;-19871.63;5112790;27;20313;-60
2022/01/16 10:47:57;;;;;;;18.47;12.63;;;3.20;99.90;;;4.24;100.00;-19871.13;5123616;27;20205;-60
2022/01/16 10:50:32;;;;;;;18.37;12.77;;;3.20;99.90;;;4.21;100.00;-19870.25;5131761;27;20223;-60
2022/01/16 10:53:03;;;;;;;19.07;13.03;;;3.20;99.90;;;4.12;100.00;-19867.00;5112171;28;20223;-59
2022/01/16 10:55:41;;;;;;;19.37;13.50;;;3.30;99.90;;;4.21;100.00;-19870.25;5112000;28;20239;-62
2022/01/16 10:58:13;;;;;;;21.57;13.90;;;3.20;99.90;;;4.17;100.00;-19868.72;5112045;28;20280;-59